Time;durP1;ratioP1;P1;durP2;ratioP2;P2;SDS_P1;SDS_P2;PMS_P1;PMS_P2;Temp;Humidity;BMP_temperature;BMP_pressure;BME280_temperature;BME280_humidity;BME280_pressure;Samples;Min_cycle;Max_cycle;Signal;HPM_P1;HPM_P2
2023/12/19 00:01:30;;;;;;;13.93;8.60;;;5.70;1.00;;;;;;6284737;22;20157;-85
2023/12/19 00:03:55;;;;;;;16.03;8.97;;;5.70;1.00;;;;;;6253057;22;20156;-85
2023/12/19 00:06:21;;;;;;;17.00;9.70;;;5.70;1.00;;;;;;6278566;22;20153;-85
2023/12/19 00:08:46;;;;;;;18.00;9.20;;;5.70;1.00;;;;;;6246379;22;20192;-85
2023/12/19 00:11:12;;;;;;;16.00;10.00;;;5.80;1.00;;;;;;6277650;22;20500;-85
2023/12/19 00:13:37;;;;;;;15.60;8.97;;;5.80;1.00;;;;;;6276325;22;20145;-85
2023/12/19 00:16:03;;;;;;;14.53;8.60;;;5.80;1.00;;;;;;6278713;22;20177;-85
2023/12/19 00:18:30;;;;;;;16.00;8.70;;;5.80;1.00;;;;;;6280583;22;20172;-85
2023/12/19 00:20:56;;;;;;;16.20;8.57;;;5.80;1.00;;;;;;6280225;22;20360;-85
2023/12/19 00:23:22;;;;;;;14.00;8.33;;;5.80;1.00;;;;;;6277046;22;20203;-86
2023/12/19 00:25:47;;;;;;;13.33;8.67;;;5.80;1.00;;;;;;6277342;22;20179;-85
2023/12/19 00:28:12;;;;;;;15.03;8.53;;;5.80;1.00;;;;;;6249280;22;20184;-85
2023/12/19 00:30:39;;;;;;;13.50;8.70;;;5.80;1.00;;;;;;6277591;22;20153;-85
2023/12/19 00:33:05;;;;;;;15.52;8.95;;;5.80;1.00;;;;;;6275931;22;20588;-85
2023/12/19 00:35:32;;;;;;;15.73;9.88;;;5.80;1.00;;;;;;6276360;22;20554;-85
2023/12/19 00:37:58;;;;;;;12.00;8.48;;;5.80;1.00;;;;;;6276803;22;20200;-85
2023/12/19 00:40:23;;;;;;;18.27;9.30;;;5.80;1.00;;;;;;6249597;22;20526;-85
2023/12/19 00:42:49;;;;;;;14.37;8.40;;;5.90;1.00;;;;;;6273852;22;20156;-85
2023/12/19 00:45:14;;;;;;;15.63;8.20;;;5.90;1.00;;;;;;6274341;22;20199;-85
2023/12/19 00:47:40;;;;;;;15.83;8.47;;;5.90;1.00;;;;;;6272413;22;20199;-86
2023/12/19 00:50:07;;;;;;;15.60;8.87;;;5.90;1.00;;;;;;6274105;22;20180;-86
2023/12/19 00:52:33;;;;;;;10.48;8.50;;;6.00;1.00;;;;;;6275056;22;20182;-85
2023/12/19 00:54:59;;;;;;;13.10;7.90;;;6.00;1.00;;;;;;6275374;22;20198;-85
2023/12/19 00:57:24;;;;;;;11.73;7.60;;;6.00;1.00;;;;;;6277206;22;20386;-85
2023/12/19 00:59:50;;;;;;;14.13;8.70;;;6.00;1.00;;;;;;6275768;22;20172;-84
2023/12/19 01:02:15;;;;;;;12.47;7.90;;;6.00;1.00;;;;;;6276435;22;20536;-85
2023/12/19 01:04:41;;;;;;;15.60;9.60;;;6.00;1.00;;;;;;6248129;22;20236;-85
2023/12/19 01:07:06;;;;;;;13.00;8.00;;;6.00;1.00;;;;;;6275947;22;20153;-85
2023/12/19 01:09:32;;;;;;;14.30;8.80;;;6.00;1.00;;;;;;6275735;22;20212;-85
2023/12/19 01:11:59;;;;;;;15.17;7.87;;;6.00;1.00;;;;;;6277023;22;20221;-85
2023/12/19 01:14:27;;;;;;;12.45;7.70;;;6.00;1.00;;;;;;6275834;22;20206;-84
2023/12/19 01:16:52;;;;;;;13.00;7.20;;;6.00;1.00;;;;;;6249806;22;20183;-86
2023/12/19 01:19:18;;;;;;;12.33;8.00;;;6.10;1.00;;;;;;6249866;22;20184;-85
2023/12/19 01:21:43;;;;;;;15.90;8.30;;;6.10;1.00;;;;;;6277256;22;20654;-85
2023/12/19 01:24:09;;;;;;;15.43;8.70;;;6.10;1.00;;;;;;6276732;22;20155;-85
2023/12/19 01:26:34;;;;;;;12.70;8.00;;;6.10;1.00;;;;;;6249919;22;20247;-85
2023/12/19 01:29:00;;;;;;;13.82;9.00;;;6.20;1.00;;;;;;6251129;22;20753;-87
2023/12/19 01:31:26;;;;;;;13.43;9.05;;;6.20;1.00;;;;;;6281168;22;20149;-85
2023/12/19 01:33:52;;;;;;;13.60;8.73;;;6.20;1.00;;;;;;6280114;22;20152;-86
2023/12/19 01:36:17;;;;;;;13.63;8.47;;;6.30;1.00;;;;;;6253670;22;20156;-86
2023/12/19 01:38:43;;;;;;;14.30;8.87;;;6.30;1.00;;;;;;6280998;22;20173;-85
2023/12/19 01:41:08;;;;;;;13.03;8.90;;;6.30;1.00;;;;;;6281307;22;20148;-85
2023/12/19 01:43:34;;;;;;;16.60;8.93;;;6.30;1.00;;;;;;6281681;22;20611;-86
2023/12/19 01:45:59;;;;;;;13.60;8.87;;;6.30;1.00;;;;;;6279927;22;20662;-85
2023/12/19 01:48:26;;;;;;;13.83;9.20;;;6.30;1.00;;;;;;6277916;22;20191;-84
2023/12/19 01:50:52;;;;;;;20.58;11.52;;;6.30;1.00;;;;;;6280698;22;20149;-85
2023/12/19 01:53:18;;;;;;;15.70;9.70;;;6.30;1.00;;;;;;6279774;22;20153;-85
2023/12/19 01:55:44;;;;;;;14.23;9.00;;;6.20;1.00;;;;;;6281342;22;20152;-85
2023/12/19 01:58:10;;;;;;;21.13;10.70;;;6.20;1.00;;;;;;6280606;22;20172;-85
2023/12/19 02:00:37;;;;;;;17.67;10.90;;;6.20;1.00;;;;;;6282346;22;20157;-85
2023/12/19 02:03:04;;;;;;;13.88;9.57;;;6.20;1.00;;;;;;6252810;22;20167;-84
2023/12/19 02:05:30;;;;;;;18.25;10.85;;;6.20;1.00;;;;;;6279039;22;20157;-85
2023/12/19 02:07:56;;;;;;;16.00;11.25;;;6.20;1.00;;;;;;6279129;22;20172;-85
2023/12/19 02:10:23;;;;;;;20.27;10.47;;;6.20;1.00;;;;;;6279359;22;20149;-85
2023/12/19 02:12:49;;;;;;;15.57;9.65;;;6.20;1.00;;;;;;6280700;22;20155;-85
2023/12/19 02:15:14;;;;;;;16.23;10.50;;;6.20;1.00;;;;;;6278317;22;20181;-85
2023/12/19 02:17:40;;;;;;;15.30;10.30;;;6.20;1.00;;;;;;6276404;22;20176;-86
2023/12/19 02:20:06;;;;;;;16.83;10.70;;;6.20;1.00;;;;;;6249269;22;20648;-85
2023/12/19 02:22:32;;;;;;;13.55;8.68;;;6.20;1.00;;;;;;6274397;22;20156;-84
2023/12/19 02:24:58;;;;;;;18.73;10.37;;;6.20;1.00;;;;;;6248793;22;20153;-84
2023/12/19 02:27:24;;;;;;;17.23;10.77;;;6.20;1.00;;;;;;6274091;22;20645;-84
2023/12/19 02:29:50;;;;;;;17.30;11.65;;;6.20;1.00;;;;;;6276348;22;20181;-85
2023/12/19 02:32:15;;;;;;;18.70;10.80;;;6.20;1.00;;;;;;6275799;22;20149;-85
2023/12/19 02:34:41;;;;;;;15.20;9.80;;;6.20;1.00;;;;;;6276136;22;20176;-85
2023/12/19 02:37:07;;;;;;;15.33;9.67;;;6.20;1.00;;;;;;6275852;22;20187;-85
2023/12/19 02:39:32;;;;;;;18.37;9.73;;;6.30;1.00;;;;;;6248064;22;20570;-85
2023/12/19 02:41:58;;;;;;;16.37;10.67;;;6.30;1.00;;;;;;6275831;22;20469;-85
2023/12/19 02:44:24;;;;;;;16.30;9.90;;;6.30;1.00;;;;;;6275819;22;20159;-85
2023/12/19 02:46:49;;;;;;;17.57;11.23;;;6.30;1.00;;;;;;6274814;22;20609;-85
2023/12/19 02:49:15;;;;;;;14.80;11.20;;;6.30;1.00;;;;;;6275815;22;20223;-86
2023/12/19 02:51:41;;;;;;;17.77;10.20;;;6.30;1.00;;;;;;6248947;22;20597;-87
2023/12/19 02:54:06;;;;;;;14.00;9.47;;;6.30;1.00;;;;;;6275819;22;20866;-85
2023/12/19 02:56:34;;;;;;;18.90;10.33;;;6.30;1.00;;;;;;6276390;22;20152;-85
2023/12/19 02:59:00;;;;;;;16.38;10.73;;;6.40;1.00;;;;;;6249500;22;20180;-85
2023/12/19 03:01:25;;;;;;;17.88;11.68;;;6.30;1.00;;;;;;6281253;22;20179;-86
2023/12/19 03:03:51;;;;;;;19.10;10.80;;;6.30;1.00;;;;;;6277090;22;20160;-85
2023/12/19 03:06:16;;;;;;;14.97;10.40;;;6.40;1.00;;;;;;6278110;22;20160;-85
2023/12/19 03:08:46;;;;;;;16.17;9.77;;;6.40;1.00;;;;;;6253385;22;20566;-85
2023/12/19 03:11:13;;;;;;;17.75;12.18;;;6.40;1.00;;;;;;6252446;22;20161;-86
2023/12/19 03:13:38;;;;;;;16.63;10.10;;;6.40;1.00;;;;;;6280023;22;20199;-86
2023/12/19 03:16:05;;;;;;;14.67;9.57;;;6.40;1.00;;;;;;6278459;22;20153;-84
2023/12/19 03:18:30;;;;;;;16.88;9.80;;;6.50;1.00;;;;;;6278981;22;20176;-85
2023/12/19 03:20:56;;;;;;;16.73;10.03;;;6.40;1.00;;;;;;6278299;22;20704;-85
2023/12/19 03:23:21;;;;;;;18.40;10.37;;;6.40;1.00;;;;;;6278695;22;20157;-85
2023/12/19 03:25:48;;;;;;;15.40;9.80;;;6.50;1.00;;;;;;6279924;22;20231;-85
2023/12/19 03:28:14;;;;;;;18.17;10.73;;;6.50;1.00;;;;;;6279306;22;20168;-85
2023/12/19 03:30:39;;;;;;;19.50;10.43;;;6.50;1.00;;;;;;6278761;22;20616;-85
2023/12/19 03:33:05;;;;;;;20.20;10.07;;;6.50;1.00;;;;;;6249828;22;20430;-84
2023/12/19 03:35:31;;;;;;;17.80;11.07;;;6.50;1.00;;;;;;6282412;22;20538;-85
2023/12/19 03:37:56;;;;;;;16.15;9.98;;;6.50;1.00;;;;;;6281253;22;20149;-85
2023/12/19 03:40:22;;;;;;;15.93;10.27;;;6.50;1.00;;;;;;6278723;22;20206;-86
2023/12/19 03:42:48;;;;;;;14.93;9.10;;;6.60;1.00;;;;;;6278113;22;20149;-86
2023/12/19 03:45:14;;;;;;;15.40;9.23;;;6.60;1.00;;;;;;6279060;22;20153;-85
2023/12/19 03:47:39;;;;;;;15.73;10.70;;;6.60;1.00;;;;;;6276098;22;20395;-85
2023/12/19 03:50:06;;;;;;;13.80;8.33;;;6.60;1.00;;;;;;6274351;22;20415;-85
2023/12/19 03:52:32;;;;;;;11.00;8.20;;;6.60;1.00;;;;;;6246925;22;20161;-85
2023/12/19 03:54:58;;;;;;;14.90;8.77;;;6.60;1.00;;;;;;6273522;22;20161;-85
2023/12/19 03:57:23;;;;;;;13.23;8.10;;;6.70;1.00;;;;;;6275699;22;20619;-85
2023/12/19 03:59:49;;;;;;;13.03;7.40;;;6.70;1.00;;;;;;6275415;22;20257;-85
2023/12/19 04:02:15;;;;;;;9.90;7.10;;;6.70;1.00;;;;;;6275072;22;20159;-86
2023/12/19 04:04:40;;;;;;;11.83;8.20;;;6.70;4.80;;;;;;6275687;22;20156;-85
2023/12/19 04:07:06;;;;;;;16.73;8.90;;;6.70;6.10;;;;;;6274564;22;20624;-85
2023/12/19 04:09:31;;;;;;;10.43;7.43;;;6.80;10.20;;;;;;6275194;22;20263;-85
2023/12/19 04:12:01;;;;;;;12.30;8.53;;;6.80;11.30;;;;;;6274218;22;20223;-85
2023/12/19 04:14:27;;;;;;;16.25;8.50;;;6.80;8.70;;;;;;6273570;22;20156;-85
2023/12/19 04:16:53;;;;;;;11.17;7.60;;;6.80;7.70;;;;;;6276134;22;20482;-85
2023/12/19 04:19:21;;;;;;;11.77;6.93;;;6.90;6.10;;;;;;6274779;22;20411;-85
2023/12/19 04:21:47;;;;;;;15.63;8.23;;;6.90;1.00;;;;;;6275254;22;20149;-85
2023/12/19 04:24:12;;;;;;;12.40;6.60;;;6.90;1.00;;;;;;6273907;22;20157;-85
2023/12/19 04:26:38;;;;;;;10.83;7.43;;;6.90;1.00;;;;;;6275192;22;20190;-85
2023/12/19 04:29:04;;;;;;;9.98;6.85;;;6.90;1.00;;;;;;6274072;22;20187;-86
2023/12/19 04:31:29;;;;;;;10.80;7.00;;;6.90;1.00;;;;;;6276044;22;20235;-85
2023/12/19 04:33:55;;;;;;;9.77;6.50;;;7.00;1.10;;;;;;6284924;22;20157;-85
2023/12/19 04:36:20;;;;;;;10.40;6.60;;;7.00;1.00;;;;;;6282035;22;20160;-86
2023/12/19 04:38:46;;;;;;;10.93;7.37;;;7.00;1.00;;;;;;6281917;22;20165;-85
2023/12/19 04:41:11;;;;;;;11.10;6.87;;;7.00;1.00;;;;;;6253280;22;20164;-85
2023/12/19 04:43:37;;;;;;;10.60;6.77;;;7.00;1.50;;;;;;6281581;22;20231;-86
2023/12/19 04:46:07;;;;;;;10.23;6.50;;;7.00;3.10;;;;;;6281034;22;20144;-84
2023/12/19 04:48:33;;;;;;;7.22;5.85;;;7.10;2.40;;;;;;6254337;22;20215;-85
2023/12/19 04:50:58;;;;;;;9.18;6.03;;;7.10;2.20;;;;;;6281265;22;20226;-85
2023/12/19 04:53:24;;;;;;;8.07;5.80;;;7.10;1.20;;;;;;6281781;22;20582;-85
2023/12/19 04:55:49;;;;;;;8.80;5.47;;;7.10;2.90;;;;;;6281643;22;20149;-86
2023/12/19 04:58:15;;;;;;;9.47;6.67;;;7.10;2.40;;;;;;6280745;22;20251;-85
2023/12/19 05:00:40;;;;;;;7.97;6.27;;;7.20;1.00;;;;;;6278634;22;20198;-85
2023/12/19 05:03:06;;;;;;;7.63;6.20;;;7.20;1.00;;;;;;6279918;22;20159;-87
2023/12/19 05:05:31;;;;;;;13.07;7.27;;;7.20;1.00;;;;;;6280609;22;20151;-85
2023/12/19 05:07:57;;;;;;;13.30;7.20;;;7.20;1.00;;;;;;6281195;22;20145;-83
2023/12/19 05:10:23;;;;;;;8.27;5.20;;;7.20;1.00;;;;;;6280450;22;20176;-85
2023/12/19 05:12:48;;;;;;;8.80;6.07;;;7.20;1.00;;;;;;6281158;22;20149;-87
2023/12/19 05:15:13;;;;;;;8.30;6.00;;;7.20;1.00;;;;;;6280798;22;20148;-85
2023/12/19 05:17:39;;;;;;;8.50;5.80;;;7.20;1.00;;;;;;6279350;22;20148;-85
2023/12/19 05:20:05;;;;;;;7.37;5.40;;;7.20;1.00;;;;;;6277521;22;20236;-85
2023/12/19 05:22:31;;;;;;;7.65;5.95;;;7.20;1.00;;;;;;6276542;22;20236;-85
2023/12/19 05:24:56;;;;;;;6.90;5.60;;;7.20;1.00;;;;;;6276855;22;20152;-83
2023/12/19 05:27:22;;;;;;;8.63;5.40;;;7.20;1.00;;;;;;6278628;22;20157;-85
2023/12/19 05:29:47;;;;;;;7.67;4.93;;;7.20;1.00;;;;;;6249385;22;20185;-85
2023/12/19 05:32:13;;;;;;;6.60;4.50;;;7.20;1.00;;;;;;6276307;22;20495;-85
2023/12/19 05:34:38;;;;;;;7.57;5.37;;;7.20;1.00;;;;;;6275567;22;20612;-85
2023/12/19 05:37:04;;;;;;;6.03;4.97;;;7.20;1.00;;;;;;6275750;22;20153;-86
2023/12/19 05:39:30;;;;;;;5.77;4.60;;;7.20;1.00;;;;;;6274532;22;20169;-85
2023/12/19 05:41:56;;;;;;;7.00;5.30;;;7.20;1.00;;;;;;6274195;22;20236;-85
2023/12/19 05:44:23;;;;;;;6.13;5.00;;;7.20;1.00;;;;;;6248680;22;20192;-85
2023/12/19 05:46:49;;;;;;;6.72;5.47;;;7.20;1.00;;;;;;6275926;22;20155;-86
2023/12/19 05:49:14;;;;;;;8.02;5.78;;;7.20;1.00;;;;;;6248709;22;20185;-85
2023/12/19 05:51:40;;;;;;;5.43;4.83;;;7.20;1.00;;;;;;6276251;22;20740;-85
2023/12/19 05:54:06;;;;;;;5.37;4.40;;;7.20;1.00;;;;;;6275271;22;20491;-85
2023/12/19 05:56:33;;;;;;;7.17;5.10;;;7.30;1.00;;;;;;6276283;22;20372;-85
2023/12/19 05:58:58;;;;;;;6.45;4.95;;;7.30;1.00;;;;;;6275501;22;20621;-85
2023/12/19 06:01:24;;;;;;;6.40;5.30;;;7.30;1.00;;;;;;6275194;22;20156;-84
2023/12/19 06:03:49;;;;;;;5.50;4.90;;;7.30;1.00;;;;;;6280579;22;20235;-86
2023/12/19 06:06:15;;;;;;;6.07;5.30;;;7.30;1.00;;;;;;6250653;22;20593;-85
2023/12/19 06:08:42;;;;;;;5.93;5.33;;;7.30;1.00;;;;;;6251539;22;20189;-85
2023/12/19 06:11:08;;;;;;;11.63;5.75;;;7.30;1.00;;;;;;6277118;22;20145;-86
2023/12/19 06:13:34;;;;;;;6.57;5.18;;;7.30;1.00;;;;;;6249919;22;20145;-85
2023/12/19 06:15:59;;;;;;;6.47;5.50;;;7.30;1.00;;;;;;6276768;22;20464;-86
2023/12/19 06:18:25;;;;;;;7.13;5.80;;;7.30;1.00;;;;;;6250050;22;20177;-85
2023/12/19 06:20:51;;;;;;;7.60;5.73;;;7.30;1.00;;;;;;6278796;22;20148;-85
2023/12/19 06:23:16;;;;;;;10.70;6.57;;;7.40;1.00;;;;;;6278156;22;20604;-85
2023/12/19 06:25:42;;;;;;;7.50;5.50;;;7.30;1.00;;;;;;6250667;22;20223;-85
2023/12/19 06:28:07;;;;;;;9.00;6.97;;;7.40;1.00;;;;;;6276768;22;20202;-84
2023/12/19 06:30:33;;;;;;;7.00;5.67;;;7.40;1.00;;;;;;6277160;22;20224;-85
2023/12/19 06:32:58;;;;;;;7.50;5.70;;;7.40;1.00;;;;;;6249105;22;20240;-86
2023/12/19 06:35:24;;;;;;;6.63;5.87;;;7.30;1.00;;;;;;6276625;22;20145;-85
2023/12/19 06:37:49;;;;;;;8.33;6.57;;;7.40;1.00;;;;;;6276084;22;20548;-86
2023/12/19 06:40:16;;;;;;;7.30;5.60;;;7.30;1.00;;;;;;6274677;22;20169;-86
2023/12/19 06:42:41;;;;;;;10.02;6.20;;;7.40;1.00;;;;;;6274656;22;20149;-87
2023/12/19 06:45:07;;;;;;;9.23;5.80;;;7.40;1.00;;;;;;6275275;22;20235;-86
2023/12/19 06:47:35;;;;;;;8.38;6.10;;;7.40;1.00;;;;;;6272340;22;20608;-87
2023/12/19 06:50:01;;;;;;;9.27;5.73;;;7.40;1.00;;;;;;6274378;22;20630;-86
2023/12/19 06:52:28;;;;;;;8.50;6.87;;;7.40;1.00;;;;;;6273283;22;20372;-86
2023/12/19 06:54:53;;;;;;;12.33;5.90;;;7.40;1.00;;;;;;6272749;22;20421;-86
2023/12/19 06:57:19;;;;;;;9.03;6.73;;;7.40;1.00;;;;;;6274584;22;20759;-86
2023/12/19 06:59:44;;;;;;;10.50;6.37;;;7.40;1.00;;;;;;6273231;22;20222;-86
2023/12/19 07:02:10;;;;;;;8.20;6.67;;;7.40;1.00;;;;;;6274243;22;20228;-87
2023/12/19 07:04:35;;;;;;;10.73;6.10;;;7.40;1.00;;;;;;6274347;22;20156;-87
2023/12/19 07:07:01;;;;;;;9.33;5.77;;;7.40;1.00;;;;;;6272950;22;20222;-87
2023/12/19 07:09:27;;;;;;;7.07;5.70;;;7.40;1.00;;;;;;6246180;22;20177;-87
2023/12/19 07:11:52;;;;;;;10.13;6.70;;;7.40;1.00;;;;;;6246048;22;20206;-87
2023/12/19 07:14:18;;;;;;;9.40;6.10;;;7.30;1.00;;;;;;6246749;22;20149;-87
2023/12/19 07:16:43;;;;;;;10.20;6.97;;;7.30;1.00;;;;;;6275112;22;20581;-87
2023/12/19 07:19:09;;;;;;;11.10;6.67;;;7.40;1.00;;;;;;6273741;22;20190;-88
2023/12/19 07:21:35;;;;;;;10.03;6.33;;;7.30;1.00;;;;;;6274173;22;20163;-86
2023/12/19 07:24:01;;;;;;;9.67;6.20;;;7.40;1.00;;;;;;6245489;22;20236;-86
2023/12/19 07:26:28;;;;;;;9.40;6.47;;;7.40;1.00;;;;;;6274747;22;20886;-87
2023/12/19 07:28:57;;;;;;;8.47;5.73;;;7.40;1.00;;;;;;6245765;22;20419;-86
2023/12/19 07:31:31;;;;;;;11.43;6.20;;;7.50;1.00;;;;;;6273225;22;20379;-86
2023/12/19 07:34:06;;;;;;;12.70;6.47;;;7.50;1.00;;;;;;6275913;22;20385;-85
2023/12/19 07:36:32;;;;;;;7.20;5.25;;;7.50;1.00;;;;;;6278489;22;20352;-86
2023/12/19 07:38:58;;;;;;;6.70;4.90;;;7.60;1.00;;;;;;6275935;22;20275;-86
2023/12/19 07:41:26;;;;;;;6.70;5.65;;;7.60;1.00;;;;;;6248987;22;20395;-85
2023/12/19 07:43:52;;;;;;;8.43;6.03;;;7.60;1.00;;;;;;6275317;22;20152;-85
2023/12/19 07:46:19;;;;;;;8.87;5.80;;;7.70;1.00;;;;;;6273999;22;20164;-85
2023/12/19 07:48:45;;;;;;;8.90;5.97;;;7.70;1.00;;;;;;6270527;22;20502;-86
2023/12/19 07:51:18;;;;;;;8.73;6.37;;;7.70;1.00;;;;;;6274340;22;20867;-87
2023/12/19 07:53:43;;;;;;;7.20;5.63;;;7.80;1.00;;;;;;6272927;22;20371;-85
2023/12/19 07:56:09;;;;;;;9.90;5.43;;;7.80;1.00;;;;;;6246592;22;20859;-86
2023/12/19 07:58:35;;;;;;;9.63;6.27;;;7.80;1.00;;;;;;6274435;22;20175;-87
2023/12/19 08:01:00;;;;;;;9.53;5.93;;;7.80;1.00;;;;;;6273591;22;20847;-85
2023/12/19 08:03:28;;;;;;;9.63;5.77;;;7.80;1.00;;;;;;6246856;22;20199;-85
2023/12/19 08:05:56;;;;;;;8.27;5.20;;;7.80;1.00;;;;;;6274121;22;20149;-85
2023/12/19 08:08:22;;;;;;;6.00;4.70;;;7.90;1.00;;;;;;6273204;22;20740;-86
2023/12/19 08:10:48;;;;;;;9.23;5.70;;;7.90;1.00;;;;;;6273163;22;20662;-85
2023/12/19 08:13:14;;;;;;;7.93;5.10;;;7.90;1.00;;;;;;6273192;22;20371;-87
2023/12/19 08:15:42;;;;;;;11.90;5.80;;;8.00;1.00;;;;;;6272853;22;21190;-86
2023/12/19 08:18:08;;;;;;;6.77;5.60;;;8.00;1.00;;;;;;6272494;22;20394;-86
2023/12/19 08:20:34;;;;;;;7.77;5.07;;;8.00;1.00;;;;;;6273356;22;20387;-86
2023/12/19 08:23:00;;;;;;;8.33;5.03;;;8.10;1.00;;;;;;6272671;22;20232;-85
2023/12/19 08:25:25;;;;;;;8.53;5.77;;;8.10;1.00;;;;;;6246618;22;20672;-85
2023/12/19 08:27:51;;;;;;;11.63;5.03;;;8.20;1.00;;;;;;6271679;22;20918;-85
2023/12/19 08:30:16;;;;;;;7.20;4.30;;;8.30;1.00;;;;;;6273468;22;20593;-86
2023/12/19 08:32:42;;;;;;;6.87;4.83;;;8.30;1.00;;;;;;6245836;22;20235;-84
2023/12/19 08:35:08;;;;;;;5.30;4.27;;;8.40;1.00;;;;;;6273456;22;20664;-84
2023/12/19 08:37:33;;;;;;;6.53;5.00;;;8.40;1.00;;;;;;6272614;22;20634;-86
2023/12/19 08:40:02;;;;;;;9.73;5.67;;;8.40;1.00;;;;;;6247561;22;20229;-85
2023/12/19 08:42:28;;;;;;;8.20;4.60;;;8.30;1.00;;;;;;6273314;22;20148;-86
2023/12/19 08:44:55;;;;;;;8.73;4.00;;;8.40;1.00;;;;;;6274305;22;20380;-85
2023/12/19 08:47:21;;;;;;;8.20;3.70;;;8.40;1.00;;;;;;6246930;22;20608;-83
2023/12/19 08:49:47;;;;;;;10.90;4.70;;;8.40;1.00;;;;;;6274453;22;20929;-85
2023/12/19 08:52:12;;;;;;;6.77;3.70;;;8.40;1.00;;;;;;6274418;22;20461;-85
2023/12/19 08:54:38;;;;;;;6.80;3.83;;;8.50;1.00;;;;;;6273509;22;20234;-85
2023/12/19 08:57:07;;;;;;;6.47;4.50;;;8.50;1.00;;;;;;6247679;22;20619;-86
2023/12/19 08:59:32;;;;;;;6.07;4.37;;;8.50;1.00;;;;;;6273774;22;20426;-85
2023/12/19 09:01:58;;;;;;;12.63;4.43;;;8.60;1.00;;;;;;6274188;22;20731;-85
2023/12/19 09:04:24;;;;;;;6.03;3.37;;;8.60;1.00;;;;;;6274590;22;20157;-86
2023/12/19 09:06:49;;;;;;;9.33;3.93;;;8.60;1.00;;;;;;6275699;22;20231;-86
2023/12/19 09:09:15;;;;;;;4.77;3.20;;;8.60;1.00;;;;;;6274110;22;20442;-85
2023/12/19 09:11:41;;;;;;;7.60;3.90;;;8.60;1.00;;;;;;6273364;22;20157;-85
2023/12/19 09:14:07;;;;;;;6.50;3.50;;;8.60;1.00;;;;;;6274874;22;20228;-87
2023/12/19 09:16:33;;;;;;;9.50;3.63;;;8.60;1.00;;;;;;6273853;22;20376;-86
2023/12/19 09:19:01;;;;;;;8.37;4.17;;;8.70;1.00;;;;;;6275976;22;20968;-85
2023/12/19 09:21:27;;;;;;;3.87;3.20;;;8.70;1.00;;;;;;6276030;22;20156;-86
2023/12/19 09:23:53;;;;;;;4.90;3.33;;;8.70;1.00;;;;;;6249021;22;20399;-85
2023/12/19 09:26:18;;;;;;;9.53;2.83;;;8.80;1.00;;;;;;6249313;22;20387;-85
2023/12/19 09:28:44;;;;;;;4.90;3.47;;;8.80;1.00;;;;;;6274072;22;20227;-85
2023/12/19 09:31:10;;;;;;;5.17;3.70;;;8.80;1.00;;;;;;6274186;22;20231;-85
2023/12/19 09:33:38;;;;;;;8.23;3.80;;;8.80;1.00;;;;;;6273537;22;20160;-85
2023/12/19 09:36:12;;;;;;;3.53;2.50;;;8.90;1.00;;;;;;6274544;22;20368;-84
2023/12/19 09:38:37;;;;;;;9.07;3.17;;;8.90;99.90;;;;;;6247580;22;20403;-85
2023/12/19 09:41:04;;;;;;;4.97;3.17;;;8.90;99.90;;;;;;6251025;22;20391;-84
2023/12/19 09:43:33;;;;;;;5.97;2.80;;;8.90;99.90;;;;;;6251144;22;20608;-84
2023/12/19 09:46:02;;;;;;;7.43;3.40;;;9.00;99.90;;;;;;6277081;22;20384;-86
2023/12/19 09:48:36;;;;;;;4.97;3.30;;;9.00;99.90;;;;;;6277487;22;20482;-85
2023/12/19 09:51:03;;;;;;;5.27;2.90;;;9.00;99.90;;;;;;6246814;22;20482;-84
2023/12/19 09:53:34;;;;;;;9.37;3.87;;;9.00;99.90;;;;;;6270941;22;20446;-86
2023/12/19 09:56:00;;;;;;;5.83;3.10;;;9.00;99.90;;;;;;6274472;22;20372;-85
2023/12/19 09:58:28;;;;;;;9.63;3.30;;;9.00;99.90;;;;;;6247997;22;20411;-85
2023/12/19 10:00:57;;;;;;;5.43;2.90;;;9.10;99.90;;;;;;6274069;22;20379;-83
2023/12/19 10:03:22;;;;;;;5.27;3.33;;;9.10;99.90;;;;;;6273520;22;20402;-85
2023/12/19 10:05:48;;;;;;;6.27;3.40;;;9.10;99.90;;;;;;6248354;22;20379;-85
2023/12/19 10:08:19;;;;;;;12.20;4.30;;;9.20;99.90;;;;;;6286486;22;20169;-85
2023/12/19 10:10:53;;;;;;;12.57;3.07;;;9.20;99.90;;;;;;6282562;22;20149;-85
2023/12/19 10:13:32;;;;;;;7.00;2.50;;;9.40;99.90;;;;;;6282347;22;20461;-84
2023/12/19 10:16:01;;;;;;;7.07;3.17;;;9.40;17.30;;;;;;6277715;22;20371;-86
2023/12/19 10:18:26;;;;;;;5.40;2.57;;;9.50;1.00;;;;;;6246248;22;20450;-86
2023/12/19 10:21:15;;;;;;;6.50;2.33;;;9.50;1.00;;;;;;6276128;22;20352;-85
2023/12/19 10:23:42;;;;;;;4.10;2.40;;;9.50;1.00;;;;;;6275115;22;20130;-85
2023/12/19 10:26:08;;;;;;;6.13;2.83;;;9.50;1.00;;;;;;6248108;22;20474;-85
2023/12/19 10:28:35;;;;;;;8.73;2.80;;;9.50;1.00;;;;;;6245785;22;21164;-85
2023/12/19 10:31:16;;;;;;;5.03;3.20;;;9.50;1.00;;;;;;6273454;22;20433;-85
2023/12/19 10:33:45;;;;;;;7.20;3.47;;;9.60;99.90;;;;;;6275163;22;20429;-85
2023/12/19 10:36:23;;;;;;;6.90;3.00;;;9.60;99.90;;;;;;6251375;22;20457;-85
2023/12/19 10:38:48;;;;;;;6.63;3.40;;;9.60;99.90;;;;;;6275949;22;21172;-84
2023/12/19 10:41:25;;;;;;;6.60;3.57;;;9.60;99.90;;;;;;6275798;22;20391;-85
2023/12/19 10:43:53;;;;;;;7.03;3.30;;;9.70;99.90;;;;;;6277934;22;20152;-85
2023/12/19 10:46:24;;;;;;;8.13;3.30;;;9.70;1.00;;;;;;6252448;22;20405;-85
2023/12/19 10:49:02;;;;;;;8.50;4.00;;;9.60;1.00;;;;;;6253579;22;20506;-85
2023/12/19 10:51:32;;;;;;;4.37;2.10;;;9.70;1.00;;;;;;6279724;22;20356;-86
2023/12/19 10:54:08;;;;;;;3.47;3.07;;;9.70;17.90;;;;;;6280134;22;20380;-85
2023/12/19 10:56:47;;;;;;;3.80;3.03;;;9.70;95.20;;;;;;6278573;22;20399;-85
2023/12/19 10:59:35;;;;;;;7.80;3.47;;;9.60;1.00;;;;;;6278742;22;20395;-84
2023/12/19 11:02:27;;;;;;;6.20;3.20;;;9.60;22.30;;;;;;6175117;22;20990;-85
2023/12/19 11:05:04;;;;;;;6.33;3.37;;;9.50;99.90;;;;;;6281307;22;20367;-85
2023/12/19 11:07:34;;;;;;;6.03;3.90;;;9.40;1.00;;;;;;6279913;22;20359;-85
2023/12/19 11:10:06;;;;;;;11.37;4.50;;;9.40;1.00;;;;;;6280977;22;20416;-85
2023/12/19 11:12:32;;;;;;;7.03;3.87;;;9.30;99.90;;;;;;6280487;22;20363;-86
2023/12/19 11:14:58;;;;;;;5.00;3.83;;;9.20;99.90;;;;;;6251649;22;20793;-85
2023/12/19 11:17:34;;;;;;;10.13;5.73;;;9.20;99.90;;;;;;6279894;22;20368;-85
2023/12/19 11:20:17;;;;;;;9.33;4.17;;;9.20;99.90;;;;;;6279877;22;20219;-85
2023/12/19 11:22:55;;;;;;;7.60;3.77;;;9.10;99.90;;;;;;6274385;22;20389;-85
2023/12/19 11:25:46;;;;;;;5.53;3.73;;;9.10;99.90;;;;;;6275458;22;20566;-86
2023/12/19 11:28:14;;;;;;;5.20;3.33;;;9.10;99.90;;;;;;6258615;22;20414;-85
2023/12/19 11:30:40;;;;;;;5.70;3.70;;;9.10;99.90;;;;;;6247637;22;20726;-84
2023/12/19 11:33:14;;;;;;;7.23;4.10;;;9.10;99.90;;;;;;6249440;22;20478;-85
2023/12/19 11:35:40;;;;;;;5.90;4.43;;;9.10;99.90;;;;;;6277684;22;20435;-85
2023/12/19 11:38:17;;;;;;;8.40;4.73;;;9.10;99.90;;;;;;6248863;22;20472;-85
2023/12/19 11:40:49;;;;;;;19.37;4.80;;;9.10;99.90;;;;;;6247585;22;20882;-85
2023/12/19 11:43:30;;;;;;;5.60;3.87;;;9.10;99.90;;;;;;6275888;22;20368;-85
2023/12/19 11:45:56;;;;;;;6.83;4.20;;;9.10;99.90;;;;;;6248238;22;20408;-85
2023/12/19 11:48:37;;;;;;;7.03;4.50;;;9.10;99.90;;;;;;6248431;22;20408;-85
2023/12/19 11:51:05;;;;;;;8.20;4.03;;;9.10;99.90;;;;;;6248882;22;20394;-85
2023/12/19 11:53:32;;;;;;;6.20;4.40;;;9.10;99.90;;;;;;6283497;22;20375;-85
2023/12/19 11:56:08;;;;;;;6.73;4.20;;;9.00;99.90;;;;;;6282235;22;20371;-85
2023/12/19 11:58:44;;;;;;;9.37;4.10;;;9.00;99.90;;;;;;6251358;22;20407;-85
2023/12/19 12:01:12;;;;;;;10.20;4.40;;;9.10;99.90;;;;;;6256236;22;20371;-85
2023/12/19 12:03:40;;;;;;;8.67;4.13;;;9.00;99.90;;;;;;6282167;22;20379;-85
2023/12/19 12:06:09;;;;;;;7.13;4.30;;;9.10;99.90;;;;;;6284390;22;20384;-84
2023/12/19 12:08:37;;;;;;;4.43;3.77;;;9.10;99.90;;;;;;6286189;22;20419;-85
2023/12/19 12:11:07;;;;;;;5.97;4.17;;;9.10;99.90;;;;;;6256198;22;20384;-85
2023/12/19 12:13:35;;;;;;;7.30;4.23;;;9.20;99.90;;;;;;6284538;22;20379;-85
2023/12/19 12:16:01;;;;;;;8.40;4.60;;;9.10;99.90;;;;;;6282049;22;20778;-85
2023/12/19 12:18:30;;;;;;;8.67;4.20;;;9.10;99.90;;;;;;6280559;22;20391;-85
2023/12/19 12:21:05;;;;;;;5.40;3.50;;;9.10;99.90;;;;;;6282209;22;20382;-84
2023/12/19 12:23:31;;;;;;;11.13;4.87;;;9.10;99.90;;;;;;6282689;22;20800;-85
2023/12/19 12:25:57;;;;;;;14.80;4.73;;;9.10;99.90;;;;;;6284447;22;20376;-84
2023/12/19 12:29:07;;;;;;;9.80;5.10;;;9.10;99.90;;;;;;6277539;22;20169;-83
2023/12/19 12:31:33;;;;;;;9.03;4.10;;;9.10;99.90;;;;;;6280860;22;20462;-84
2023/12/19 12:34:00;;;;;;;17.70;5.30;;;9.10;99.90;;;;;;6280191;22;20451;-84
2023/12/19 12:36:26;;;;;;;10.80;4.73;;;9.10;99.90;;;;;;6280149;22;20368;-84
2023/12/19 12:38:55;;;;;;;11.67;4.67;;;9.10;99.90;;;;;;6281735;22;20398;-84
2023/12/19 12:41:24;;;;;;;7.03;4.20;;;9.10;99.90;;;;;;6250339;22;20387;-84
2023/12/19 12:43:53;;;;;;;9.10;4.90;;;9.10;99.90;;;;;;6253373;22;20388;-85
2023/12/19 12:46:21;;;;;;;9.40;5.23;;;9.10;99.90;;;;;;6280693;22;20379;-84
2023/12/19 12:48:53;;;;;;;11.93;5.80;;;9.10;99.90;;;;;;6255113;22;20434;-84
2023/12/19 12:51:22;;;;;;;9.97;5.07;;;9.10;99.90;;;;;;6284244;22;20383;-85
2023/12/19 12:53:55;;;;;;;9.97;6.07;;;9.00;1.00;;;;;;6257968;22;20529;-85
2023/12/19 12:56:28;;;;;;;20.10;6.00;;;9.00;1.00;;;;;;6287760;22;20371;-84
2023/12/19 12:59:03;;;;;;;7.20;4.63;;;9.00;1.00;;;;;;6287483;22;20395;-84
2023/12/19 13:01:32;;;;;;;8.50;5.23;;;9.00;1.00;;;;;;6261391;22;20379;-84